Lewisport, Kentucky
Current Conditions -  °F | °C
As of 7:56 PM on Friday 19 Dec 2014 (Local Time) from KOWB Reporting Station
Clear Clear  
Wind Chill: 27°   Ceiling: Unl
Heat Index: 33°   Visibility: 10mi
Dew Point: 25°   Wind: 7mph
Humidity: 73%   Direction: 50°NE
Pressure: 30.27"   Gusts: NA
Location:  37.94°N, 86.9°W
Report Text: KOWB 200156Z 05006KT 10SM CLR 01/M04 A3027 RMK AO2 T00051038 SLP255
Loading
Personal Weather Stations






























Interactive Weather Map New forecast layout! Learn more

10-Day Weather Forecast

Advertisements
Track Severe Weather on mobile